Time;durP1;ratioP1;P1;durP2;ratioP2;P2;SDS_P1;SDS_P2;PMS_P1;PMS_P2;Temp;Humidity;BMP_temperature;BMP_pressure;BME280_temperature;BME280_humidity;BME280_pressure;Samples;Min_cycle;Max_cycle;Signal;HPM_P1;HPM_P2
2021/05/21 00:01:35;;;;;;;;;;;12.50;99.90;;;;;;5094278;28;19911;-72
2021/05/21 00:04:01;;;;;;;;;;;12.60;99.90;;;;;;5094268;28;19909;-72
2021/05/21 00:06:28;;;;;;;;;;;12.60;99.90;;;;;;5094352;28;20291;-72
2021/05/21 00:08:55;;;;;;;;;;;12.60;99.90;;;;;;5093853;28;19909;-71
2021/05/21 00:11:22;;;;;;;;;;;12.80;99.90;;;;;;5093853;28;20224;-72
2021/05/21 00:13:49;;;;;;;;;;;12.90;99.90;;;;;;5093797;28;20372;-72
2021/05/21 00:16:15;;;;;;;;;;;12.90;99.90;;;;;;5093848;28;20567;-70
2021/05/21 00:18:42;;;;;;;;;;;13.00;99.90;;;;;;5093731;28;19912;-70
2021/05/21 00:21:09;;;;;;;;;;;13.00;99.90;;;;;;5093732;28;19915;-71
2021/05/21 00:23:35;;;;;;;;;;;13.10;99.90;;;;;;5093818;28;19947;-70
2021/05/21 00:26:02;;;;;;;;;;;13.30;99.90;;;;;;5093593;28;19908;-72
2021/05/21 00:28:29;;;;;;;;;;;13.40;99.90;;;;;;5093724;28;19918;-72
2021/05/21 00:30:55;;;;;;;;;;;13.50;99.90;;;;;;5093262;28;20282;-70
2021/05/21 00:33:22;;;;;;;;;;;13.70;99.90;;;;;;5093556;28;19912;-71
2021/05/21 00:35:49;;;;;;;;;;;13.80;99.90;;;;;;5093448;28;19915;-71
2021/05/21 00:38:15;;;;;;;;;;;14.00;99.90;;;;;;5093460;28;19959;-71
2021/05/21 00:40:42;;;;;;;;;;;14.00;99.90;;;;;;5091974;28;20370;-71
2021/05/21 00:43:09;;;;;;;;;;;14.10;99.90;;;;;;5093177;28;20328;-70
2021/05/21 00:45:35;;;;;;;;;;;14.10;99.90;;;;;;5093311;28;19919;-70
2021/05/21 00:48:02;;;;;;;;;;;14.20;99.90;;;;;;5093516;28;19958;-70
2021/05/21 00:50:29;;;;;;;;;;;14.20;99.90;;;;;;5092393;28;19927;-69
2021/05/21 00:52:56;;;;;;;;;;;14.30;99.90;;;;;;5092996;28;19909;-72
2021/05/21 00:55:22;;;;;;;;;;;14.30;99.90;;;;;;5093185;28;19909;-73
2021/05/21 00:57:49;;;;;;;;;;;14.30;99.90;;;;;;5093088;28;20251;-70
2021/05/21 01:00:16;;;;;;;;;;;14.40;99.90;;;;;;5092921;28;19908;-72
2021/05/21 01:02:43;;;;;;;;;;;14.40;99.90;;;;;;5093063;28;19931;-71
2021/05/21 01:05:09;;;;;;;;;;;14.50;99.90;;;;;;5093175;28;19912;-71
2021/05/21 01:07:36;;;;;;;;;;;14.60;99.90;;;;;;5093157;28;19930;-72
2021/05/21 01:10:03;;;;;;;;;;;14.60;99.90;;;;;;5093007;28;19923;-71
2021/05/21 01:12:31;;;;;;;;;;;14.70;99.90;;;;;;5093061;28;19912;-69
2021/05/21 01:14:58;;;;;;;;;;;14.70;99.90;;;;;;5093206;28;20220;-71
2021/05/21 01:17:24;;;;;;;;;;;14.70;99.90;;;;;;5091824;28;19916;-71
2021/05/21 01:19:52;;;;;;;;;;;14.70;99.90;;;;;;5088470;28;19962;-70
2021/05/21 01:22:19;;;;;;;;;;;14.70;99.90;;;;;;5092869;28;20025;-71
2021/05/21 01:24:46;;;;;;;;;;;14.70;99.90;;;;;;5087025;28;19915;-68
2021/05/21 01:27:12;;;;;;;;;;;14.70;99.90;;;;;;5088130;28;20305;-70
2021/05/21 01:29:40;;;;;;;;;;;14.70;99.90;;;;;;5092641;28;19916;-70
2021/05/21 01:32:10;;;;;;;;;;;14.70;99.90;;;;;;5093047;28;19914;-70
2021/05/21 01:34:38;;;;;;;;;;;14.60;99.90;;;;;;5092691;28;20025;-69
2021/05/21 01:37:15;;;;;;;;;;;14.60;99.90;;;;;;5093060;28;19912;-69
2021/05/21 01:39:42;;;;;;;;;;;14.50;99.90;;;;;;5093292;28;19908;-70
2021/05/21 01:42:12;;;;;;;;;;;14.60;99.90;;;;;;5093252;28;20049;-68
2021/05/21 01:44:42;;;;;;;;;;;14.60;99.90;;;;;;5092918;28;20374;-70
2021/05/21 01:47:13;;;;;;;;;;;14.60;99.90;;;;;;5090106;28;20159;-68
2021/05/21 01:49:42;;;;;;;;;;;14.60;99.90;;;;;;5092636;28;19959;-68
2021/05/21 01:52:09;;;;;;;;;;;14.60;99.90;;;;;;5092640;28;20007;-69
2021/05/21 01:54:36;;;;;;;;;;;14.60;99.90;;;;;;5087444;28;19934;-70
2021/05/21 01:57:03;;;;;;;;;;;14.60;99.90;;;;;;5092473;28;19913;-70
2021/05/21 01:59:30;;;;;;;;;;;14.60;99.90;;;;;;5092505;28;19988;-70
2021/05/21 02:01:56;;;;;;;;;;;14.60;99.90;;;;;;5094950;28;19916;-71
2021/05/21 02:04:30;;;;;;;;;;;14.50;99.90;;;;;;5096226;28;20003;-69
2021/05/21 02:06:57;;;;;;;;;;;14.50;99.90;;;;;;5096330;28;19908;-71
2021/05/21 02:09:24;;;;;;;;;;;14.50;99.90;;;;;;5096319;28;19916;-69
2021/05/21 02:11:51;;;;;;;;;;;14.60;99.90;;;;;;5096324;28;19909;-69
2021/05/21 02:14:18;;;;;;;;;;;14.60;99.90;;;;;;5096140;28;19912;-68
2021/05/21 02:16:45;;;;;;;;;;;14.70;99.90;;;;;;5096022;28;19908;-68
2021/05/21 02:19:12;;;;;;;;;;;14.70;99.90;;;;;;5096385;28;19915;-68
2021/05/21 02:21:41;;;;;;;;;;;14.70;99.90;;;;;;5096275;28;19991;-69
2021/05/21 02:24:09;;;;;;;;;;;14.80;99.90;;;;;;5096030;28;19995;-71
2021/05/21 02:26:36;;;;;;;;;;;14.80;99.90;;;;;;5095999;28;20380;-70
2021/05/21 02:29:04;;;;;;;;;;;14.80;99.90;;;;;;5089627;28;19923;-69
2021/05/21 02:31:33;;;;;;;;;;;14.70;99.90;;;;;;5095787;28;20092;-70
2021/05/21 02:34:00;;;;;;;;;;;14.80;99.90;;;;;;5095772;28;19957;-70
2021/05/21 02:36:31;;;;;;;;;;;14.80;99.90;;;;;;5095907;28;19916;-71
2021/05/21 02:39:03;;;;;;;;;;;14.80;99.90;;;;;;5095996;28;19908;-69
2021/05/21 02:41:33;;;;;;;;;;;14.70;99.90;;;;;;5096175;28;20364;-69
2021/05/21 02:44:02;;;;;;;;;;;14.70;99.90;;;;;;5094260;28;20266;-68
2021/05/21 02:46:33;;;;;;;;;;;14.60;99.90;;;;;;5095777;28;20531;-69
2021/05/21 02:49:00;;;;;;;;;;;14.60;99.90;;;;;;5095945;28;19908;-68
2021/05/21 02:51:27;;;;;;;;;;;14.60;99.90;;;;;;5095162;28;19923;-68
2021/05/21 02:53:56;;;;;;;;;;;14.50;99.90;;;;;;5090681;28;20002;-70
2021/05/21 02:56:24;;;;;;;;;;;14.50;99.90;;;;;;5096363;28;20051;-71
2021/05/21 02:58:51;;;;;;;;;;;14.50;99.90;;;;;;5095472;28;19961;-71
2021/05/21 03:01:18;;;;;;;;;;;14.50;99.90;;;;;;5095744;28;19909;-71
2021/05/21 03:03:45;;;;;;;;;;;14.40;99.90;;;;;;5094106;28;19908;-71
2021/05/21 03:06:12;;;;;;;;;;;14.50;99.90;;;;;;5095408;28;20460;-72
2021/05/21 03:08:38;;;;;;;;;;;14.60;99.90;;;;;;5095666;28;20363;-72
2021/05/21 03:11:05;;;;;;;;;;;14.70;99.90;;;;;;5088728;28;19920;-72
2021/05/21 03:13:31;;;;;;;;;;;14.60;99.90;;;;;;5090379;28;20007;-71
2021/05/21 03:15:58;;;;;;;;;;;14.60;99.90;;;;;;5075045;28;19915;-71
2021/05/21 03:18:25;;;;;;;;;;;14.60;99.90;;;;;;5075418;28;19915;-70
2021/05/21 03:20:51;;;;;;;;;;;14.40;99.90;;;;;;5074609;28;19995;-70
2021/05/21 03:23:19;;;;;;;;;;;14.40;99.90;;;;;;5075059;28;19908;-70
2021/05/21 03:25:46;;;;;;;;;;;14.40;99.90;;;;;;5074096;28;19909;-72
2021/05/21 03:28:13;;;;;;;;;;;14.20;99.90;;;;;;5073932;28;19932;-72
2021/05/21 03:30:40;;;;;;;;;;;14.20;99.90;;;;;;5074116;28;19921;-72
2021/05/21 03:33:08;;;;;;;;;;;14.10;99.90;;;;;;5074039;28;19909;-70
2021/05/21 03:35:35;;;;;;;;;;;14.10;99.90;;;;;;5074007;28;20357;-70
2021/05/21 03:38:05;;;;;;;;;;;14.10;99.90;;;;;;5073994;28;19915;-69
2021/05/21 03:40:33;;;;;;;;;;;14.10;99.90;;;;;;5088310;28;19908;-70
2021/05/21 03:42:59;;;;;;;;;;;14.00;99.90;;;;;;5113439;28;19974;-70
2021/05/21 03:45:26;;;;;;;;;;;14.00;99.90;;;;;;5114935;28;19919;-70
2021/05/21 03:47:53;;;;;;;;;;;14.00;99.90;;;;;;5115130;28;20011;-71
2021/05/21 03:50:21;;;;;;;;;;;14.00;99.90;;;;;;5114758;28;20446;-70
2021/05/21 03:52:48;;;;;;;;;;;14.10;99.90;;;;;;5114735;28;19932;-71
2021/05/21 03:55:16;;;;;;;;;;;14.20;99.90;;;;;;5114930;28;19908;-69
2021/05/21 03:57:42;;;;;;;;;;;14.20;99.90;;;;;;5114662;28;19977;-70
2021/05/21 04:00:11;;;;;;;;;;;14.20;99.90;;;;;;5114830;28;19918;-70
2021/05/21 04:02:37;;;;;;;;;;;14.20;99.90;;;;;;5112637;28;19907;-70
2021/05/21 04:05:05;;;;;;;;;;;14.30;99.90;;;;;;5086238;28;19909;-70
2021/05/21 04:07:31;;;;;;;;;;;14.20;99.90;;;;;;5107558;28;19908;-70
2021/05/21 04:09:58;;;;;;;;;;;14.30;99.90;;;;;;5114564;28;20009;-71
2021/05/21 04:12:28;;;;;;;;;;;14.40;99.90;;;;;;5114389;28;19975;-69
2021/05/21 04:14:58;;;;;;;;;;;14.40;99.90;;;;;;5114367;28;20057;-70
2021/05/21 04:17:25;;;;;;;;;;;14.40;99.90;;;;;;5114444;28;19908;-69
2021/05/21 04:19:51;;;;;;;;;;;14.50;99.90;;;;;;5114330;28;19958;-70
2021/05/21 04:22:18;;;;;;;;;;;14.50;99.90;;;;;;5114327;28;20271;-71
2021/05/21 04:24:45;;;;;;;;;;;14.40;99.90;;;;;;5113766;28;20016;-69
2021/05/21 04:27:11;;;;;;;;;;;14.40;99.90;;;;;;5114320;28;19907;-71
2021/05/21 04:29:38;;;;;;;;;;;14.30;99.90;;;;;;5114050;28;19923;-70
2021/05/21 04:32:06;;;;;;;;;;;14.30;99.90;;;;;;5114120;28;20003;-69
2021/05/21 04:34:33;;;;;;;;;;;14.30;99.90;;;;;;5114078;28;20362;-71
2021/05/21 04:37:00;;;;;;;;;;;14.30;99.90;;;;;;5114094;28;19917;-71
2021/05/21 04:39:27;;;;;;;;;;;14.30;99.90;;;;;;5114197;28;19908;-72
2021/05/21 04:41:54;;;;;;;;;;;14.30;99.90;;;;;;5114296;28;19908;-73
2021/05/21 04:44:21;;;;;;;;;;;14.30;99.90;;;;;;5112558;28;19945;-71
2021/05/21 04:46:48;;;;;;;;;;;14.30;99.90;;;;;;5113857;28;19970;-71
2021/05/21 04:49:36;;;;;;;;;;;14.30;99.90;;;;;;5113905;28;19995;-70
2021/05/21 04:52:03;;;;;;;;;;;14.40;99.90;;;;;;5113429;28;19918;-71
2021/05/21 04:54:30;;;;;;;;;;;14.40;99.90;;;;;;5114036;28;19908;-70
2021/05/21 04:56:57;;;;;;;;;;;14.60;99.90;;;;;;5113883;28;19915;-69
2021/05/21 04:59:23;;;;;;;;;;;14.60;99.90;;;;;;5113850;28;19908;-71
2021/05/21 05:01:50;;;;;;;;;;;14.60;99.90;;;;;;5114755;28;19915;-70
2021/05/21 05:04:17;;;;;;;;;;;14.60;99.90;;;;;;5113733;28;19968;-69
2021/05/21 05:06:44;;;;;;;;;;;14.60;99.90;;;;;;5112197;28;20393;-70
2021/05/21 05:09:11;;;;;;;;;;;14.70;99.90;;;;;;5113720;28;20289;-70
2021/05/21 05:11:40;;;;;;;;;;;14.60;99.90;;;;;;5113618;28;20267;-72
2021/05/21 05:14:08;;;;;;;;;;;14.60;99.90;;;;;;5113586;28;20016;-72
2021/05/21 05:16:35;;;;;;;;;;;14.70;99.90;;;;;;5113621;28;19916;-70
2021/05/21 05:19:02;;;;;;;;;;;14.70;99.90;;;;;;5113261;28;20437;-72
2021/05/21 05:21:31;;;;;;;;;;;14.80;99.90;;;;;;5113514;28;19908;-71
2021/05/21 05:23:58;;;;;;;;;;;14.70;99.90;;;;;;5113440;28;19908;-71
2021/05/21 05:26:25;;;;;;;;;;;14.80;99.90;;;;;;5113572;28;19912;-70
2021/05/21 05:28:52;;;;;;;;;;;14.90;99.90;;;;;;5113110;28;20335;-71
2021/05/21 05:31:19;;;;;;;;;;;15.00;99.90;;;;;;5113548;28;19916;-70
2021/05/21 05:33:47;;;;;;;;;;;15.10;99.90;;;;;;5113470;28;19912;-71
2021/05/21 05:36:14;;;;;;;;;;;15.20;99.90;;;;;;5114720;28;19907;-70
2021/05/21 05:38:41;;;;;;;;;;;15.30;99.90;;;;;;5117543;28;19908;-70
2021/05/21 05:41:07;;;;;;;;;;;15.40;99.90;;;;;;5117444;28;20052;-70
2021/05/21 05:43:34;;;;;;;;;;;15.40;99.90;;;;;;5117235;28;19920;-70
2021/05/21 05:46:01;;;;;;;;;;;15.40;99.90;;;;;;5117262;28;19915;-70
2021/05/21 05:48:27;;;;;;;;;;;15.40;99.90;;;;;;5117452;28;19908;-72
2021/05/21 05:50:54;;;;;;;;;;;15.40;99.90;;;;;;5116852;28;19916;-71
2021/05/21 05:53:21;;;;;;;;;;;15.50;99.90;;;;;;5117139;28;19953;-72
2021/05/21 05:55:47;;;;;;;;;;;15.50;99.90;;;;;;5117327;28;19908;-71
2021/05/21 05:58:14;;;;;;;;;;;15.40;99.90;;;;;;5117411;28;20308;-72
2021/05/21 06:00:41;;;;;;;;;;;15.50;99.90;;;;;;5117184;28;19908;-70
2021/05/21 06:03:09;;;;;;;;;;;15.50;99.90;;;;;;5116745;28;19994;-71
2021/05/21 06:05:36;;;;;;;;;;;15.50;99.90;;;;;;5117133;28;19918;-70
2021/05/21 06:08:05;;;;;;;;;;;15.50;99.90;;;;;;5116929;28;19994;-70
2021/05/21 06:10:32;;;;;;;;;;;15.50;99.90;;;;;;5116884;28;20374;-68
2021/05/21 06:13:03;;;;;;;;;;;15.50;99.90;;;;;;5116397;28;20362;-67
2021/05/21 06:15:33;;;;;;;;;;;15.60;99.90;;;;;;5116896;28;20290;-67
2021/05/21 06:18:00;;;;;;;;;;;15.60;99.90;;;;;;5117475;28;19912;-70
2021/05/21 06:20:27;;;;;;;;;;;15.60;99.90;;;;;;5117601;28;19908;-70
2021/05/21 06:22:54;;;;;;;;;;;15.60;99.90;;;;;;5118108;28;19915;-71
2021/05/21 06:25:24;;;;;;;;;;;15.60;99.90;;;;;;5118510;28;20366;-69
2021/05/21 06:27:50;;;;;;;;;;;15.60;99.90;;;;;;5118477;28;19908;-70
2021/05/21 06:30:17;;;;;;;;;;;15.60;99.90;;;;;;5118420;28;20041;-67
2021/05/21 06:32:44;;;;;;;;;;;15.60;99.90;;;;;;5118420;28;19930;-70
2021/05/21 06:35:12;;;;;;;;;;;15.60;99.90;;;;;;5118486;28;19908;-71
2021/05/21 06:37:39;;;;;;;;;;;15.60;99.90;;;;;;5119576;28;20020;-68
2021/05/21 06:40:06;;;;;;;;;;;15.60;99.90;;;;;;5118537;28;19908;-69
2021/05/21 06:42:33;;;;;;;;;;;15.60;99.90;;;;;;5120582;28;19923;-70
2021/05/21 06:45:00;;;;;;;;;;;15.60;99.90;;;;;;5121672;28;19926;-69
2021/05/21 06:47:27;;;;;;;;;;;15.60;99.90;;;;;;5115977;28;20011;-66
2021/05/21 06:49:53;;;;;;;;;;;15.60;99.90;;;;;;5116298;28;19980;-70
2021/05/21 06:52:20;;;;;;;;;;;15.60;99.90;;;;;;5116192;28;19916;-70
2021/05/21 06:54:47;;;;;;;;;;;15.50;99.90;;;;;;5115894;28;19908;-70
2021/05/21 06:57:14;;;;;;;;;;;15.50;99.90;;;;;;5115845;28;19907;-67
2021/05/21 06:59:41;;;;;;;;;;;15.50;99.90;;;;;;5116207;28;19908;-70
2021/05/21 07:02:08;;;;;;;;;;;15.50;99.90;;;;;;5115913;28;20394;-72
2021/05/21 07:04:34;;;;;;;;;;;15.50;99.90;;;;;;5116165;28;19931;-71
2021/05/21 07:07:01;;;;;;;;;;;15.60;99.90;;;;;;5115940;28;19914;-72
2021/05/21 07:09:28;;;;;;;;;;;15.60;99.90;;;;;;5116142;28;19908;-70
2021/05/21 07:11:54;;;;;;;;;;;15.60;99.90;;;;;;5115718;28;20356;-70
2021/05/21 07:14:21;;;;;;;;;;;15.60;99.90;;;;;;5115620;28;20366;-72
2021/05/21 07:16:48;;;;;;;;;;;15.60;99.90;;;;;;5114127;28;19915;-70
2021/05/21 07:19:17;;;;;;;;;;;15.60;99.90;;;;;;5115348;28;20373;-71
2021/05/21 07:21:47;;;;;;;;;;;15.60;99.90;;;;;;5115133;28;19962;-71
2021/05/21 07:24:13;;;;;;;;;;;15.60;99.90;;;;;;5115659;28;19908;-72
2021/05/21 07:26:40;;;;;;;;;;;15.60;99.90;;;;;;5115359;28;19912;-71
2021/05/21 07:29:07;;;;;;;;;;;15.60;99.90;;;;;;5115013;28;19946;-71
2021/05/21 07:31:34;;;;;;;;;;;15.60;99.90;;;;;;5114986;28;19923;-72
2021/05/21 07:34:01;;;;;;;;;;;15.50;99.90;;;;;;5113990;28;19947;-71
2021/05/21 07:36:35;;;;;;;;;;;15.50;99.90;;;;;;5115347;28;19908;-71
2021/05/21 07:39:03;;;;;;;;;;;15.60;99.90;;;;;;5115232;28;20349;-71
2021/05/21 07:41:29;;;;;;;;;;;15.60;99.90;;;;;;5112560;28;19926;-72
2021/05/21 07:43:57;;;;;;;;;;;15.60;99.90;;;;;;5113107;28;20433;-69
2021/05/21 07:46:26;;;;;;;;;;;15.60;99.90;;;;;;5113420;28;20004;-71
2021/05/21 07:48:53;;;;;;;;;;;15.60;99.90;;;;;;5114130;28;19968;-72
2021/05/21 07:51:20;;;;;;;;;;;15.50;99.90;;;;;;5114512;28;19930;-71
2021/05/21 07:53:48;;;;;;;;;;;15.50;99.90;;;;;;5118133;28;19918;-71
2021/05/21 07:56:15;;;;;;;;;;;15.50;99.90;;;;;;5117943;28;19914;-72
2021/05/21 07:58:41;;;;;;;;;;;15.50;99.90;;;;;;5114731;28;19907;-72
2021/05/21 08:01:08;;;;;;;;;;;15.50;99.90;;;;;;5115247;28;19914;-68
2021/05/21 08:03:35;;;;;;;;;;;15.50;99.90;;;;;;5115026;28;19908;-70
2021/05/21 08:06:02;;;;;;;;;;;15.60;99.90;;;;;;5113932;28;20223;-70
2021/05/21 08:08:31;;;;;;;;;;;15.60;99.90;;;;;;5113302;28;19908;-72
2021/05/21 08:10:58;;;;;;;;;;;15.60;99.90;;;;;;5113341;28;19982;-70
2021/05/21 08:13:25;;;;;;;;;;;15.60;99.90;;;;;;5113614;28;19908;-70
2021/05/21 08:15:52;;;;;;;;;;;15.50;99.90;;;;;;5113258;28;19908;-72
2021/05/21 08:18:19;;;;;;;;;;;15.50;99.90;;;;;;5112587;28;20393;-72
2021/05/21 08:20:47;;;;;;;;;;;15.50;99.90;;;;;;5111898;28;20322;-71
2021/05/21 08:23:14;;;;;;;;;;;15.50;99.90;;;;;;5112370;28;19908;-72
2021/05/21 08:25:41;;;;;;;;;;;15.40;99.90;;;;;;5112174;28;19915;-72
2021/05/21 08:28:08;;;;;;;;;;;15.40;99.90;;;;;;5112061;28;19912;-70
2021/05/21 08:30:35;;;;;;;;;;;15.40;99.90;;;;;;5112062;28;19928;-71
2021/05/21 08:33:02;;;;;;;;;;;15.30;99.90;;;;;;5111479;28;19925;-68
2021/05/21 08:35:30;;;;;;;;;;;15.20;99.90;;;;;;5112157;28;20398;-71
2021/05/21 08:37:57;;;;;;;;;;;15.20;99.90;;;;;;5112022;28;19941;-70
2021/05/21 08:40:29;;;;;;;;;;;15.10;99.90;;;;;;5111956;27;19915;-68
2021/05/21 08:43:00;;;;;;;;;;;15.10;99.90;;;;;;5110062;28;19924;-72
2021/05/21 08:45:29;;;;;;;;;;;15.10;99.90;;;;;;5111572;28;19919;-70
2021/05/21 08:47:56;;;;;;;;;;;15.10;99.90;;;;;;5112012;28;19961;-72
2021/05/21 08:50:24;;;;;;;;;;;15.00;99.90;;;;;;5111533;28;19916;-71
2021/05/21 08:52:51;;;;;;;;;;;15.00;99.90;;;;;;5111546;28;19907;-71
2021/05/21 08:55:17;;;;;;;;;;;15.00;99.90;;;;;;5111898;28;20270;-71
2021/05/21 08:57:45;;;;;;;;;;;15.00;99.90;;;;;;5111524;28;19908;-72
2021/05/21 09:00:12;;;;;;;;;;;14.90;99.90;;;;;;5111318;28;19908;-70
2021/05/21 09:02:39;;;;;;;;;;;15.00;99.90;;;;;;5111734;28;19908;-71
2021/05/21 09:05:12;;;;;;;;;;;15.00;99.90;;;;;;5111637;28;19908;-71
2021/05/21 09:07:42;;;;;;;;;;;15.00;99.90;;;;;;5113811;28;19907;-69
2021/05/21 09:10:10;;;;;;;;;;;14.90;99.90;;;;;;5113163;28;20381;-71
2021/05/21 09:12:47;;;;;;;;;;;14.90;99.90;;;;;;5113123;28;19914;-71
2021/05/21 09:15:21;;;;;;;;;;;14.90;99.90;;;;;;5113749;28;19915;-70
2021/05/21 09:17:50;;;;;;;;;;;14.80;99.90;;;;;;5115327;28;20378;-70
2021/05/21 09:20:40;;;;;;;;;;;14.90;99.90;;;;;;5115015;28;19908;-69
2021/05/21 09:23:08;;;;;;;;;;;14.90;99.90;;;;;;5107235;28;20364;-68
2021/05/21 09:25:36;;;;;;;;;;;14.90;99.90;;;;;;5118872;28;19915;-69
2021/05/21 09:28:02;;;;;;;;;;;14.90;99.90;;;;;;5112318;28;19946;-69
2021/05/21 09:30:29;;;;;;;;;;;14.90;99.90;;;;;;5073749;28;20373;-70
2021/05/21 09:33:03;;;;;;;;;;;14.90;99.90;;;;;;5073182;28;19919;-71
2021/05/21 09:35:29;;;;;;;;;;;14.90;99.90;;;;;;5073475;28;20324;-70
2021/05/21 09:37:56;;;;;;;;;;;14.90;99.90;;;;;;5073449;28;19913;-70
2021/05/21 09:40:26;;;;;;;;;;;14.90;99.90;;;;;;5073610;28;19909;-69
2021/05/21 09:42:59;;;;;;;;;;;14.80;99.90;;;;;;5073197;28;19913;-70
2021/05/21 09:45:26;;;;;;;;;;;14.80;99.90;;;;;;5105998;28;19915;-71
2021/05/21 09:47:55;;;;;;;;;;;14.70;99.90;;;;;;5071304;28;19965;-69
2021/05/21 09:50:34;;;;;;;;;;;14.70;99.90;;;;;;5069155;28;19939;-69
2021/05/21 09:53:05;;;;;;;;;;;14.70;99.90;;;;;;5070348;28;19908;-71
2021/05/21 09:55:33;;;;;;;;;;;14.60;99.90;;;;;;5072909;28;19913;-72
2021/05/21 09:58:00;;;;;;;;;;;14.70;99.90;;;;;;5077410;28;19917;-71
2021/05/21 10:00:26;;;;;;;;;;;14.60;99.90;;;;;;5069751;28;19912;-71
2021/05/21 10:02:53;;;;;;;;;;;14.70;99.90;;;;;;5069611;28;19931;-72
2021/05/21 10:05:20;;;;;;;;;;;14.60;99.90;;;;;;5069767;28;19924;-70
2021/05/21 10:07:48;;;;;;;;;;;14.60;99.90;;;;;;5069427;28;20488;-70
2021/05/21 10:10:15;;;;;;;;;;;14.50;99.90;;;;;;5070006;28;19916;-71
2021/05/21 10:12:44;;;;;;;;;;;14.50;99.90;;;;;;5069196;28;19912;-70
2021/05/21 10:15:12;;;;;;;;;;;14.40;99.90;;;;;;5069811;28;19909;-68
2021/05/21 10:17:39;;;;;;;;;;;14.40;99.90;;;;;;5069742;28;20367;-71
2021/05/21 10:20:06;;;;;;;;;;;14.30;99.90;;;;;;5069624;28;20291;-72
2021/05/21 10:22:35;;;;;;;;;;;14.30;99.90;;;;;;5070607;28;19916;-70
2021/05/21 10:25:21;;;;;;;;;;;14.30;99.90;;;;;;5073236;28;19970;-71
2021/05/21 10:27:50;;;;;;;;;;;14.30;99.90;;;;;;5072372;28;19912;-71
2021/05/21 10:30:17;;;;;;;;;;;14.30;99.90;;;;;;5073220;28;19920;-70
2021/05/21 10:32:43;;;;;;;;;;;14.20;99.90;;;;;;5073006;28;19908;-68
2021/05/21 10:35:20;;;;;;;;;;;14.20;99.90;;;;;;5072626;28;19966;-73
2021/05/21 10:37:47;;;;;;;;;;;14.10;99.90;;;;;;5088537;28;19908;-69
2021/05/21 10:40:32;;;;;;;;;;;14.10;99.90;;;;;;5073379;28;19909;-71
2021/05/21 10:42:59;;;;;;;;;;;14.00;99.90;;;;;;5072584;28;19919;-72
2021/05/21 10:45:26;;;;;;;;;;;14.00;99.90;;;;;;5073021;28;20236;-72
2021/05/21 10:47:59;;;;;;;;;;;14.00;99.90;;;;;;5072680;28;20264;-70
2021/05/21 10:50:35;;;;;;;;;;;14.00;99.90;;;;;;5072974;28;19917;-72
2021/05/21 10:53:04;;;;;;;;;;;13.90;99.90;;;;;;5088210;28;19948;-73
2021/05/21 10:55:57;;;;;;;;;;;13.90;99.90;;;;;;5072700;28;19912;-73
2021/05/21 10:58:29;;;;;;;;;;;14.00;99.90;;;;;;5070565;28;19919;-70
2021/05/21 11:01:05;;;;;;;;;;;13.90;99.90;;;;;;5072230;28;20033;-71
2021/05/21 11:03:51;;;;;;;;;;;13.90;99.90;;;;;;5072668;28;19909;-71
2021/05/21 11:06:21;;;;;;;;;;;13.80;99.90;;;;;;5072848;28;20315;-71
2021/05/21 11:08:48;;;;;;;;;;;13.70;99.90;;;;;;5072415;28;19916;-72
2021/05/21 11:11:15;;;;;;;;;;;13.80;99.90;;;;;;5072528;28;19917;-72
2021/05/21 11:13:43;;;;;;;;;;;13.70;99.90;;;;;;5072243;28;19909;-70
2021/05/21 11:16:14;;;;;;;;;;;13.70;99.90;;;;;;5072493;28;19916;-72
2021/05/21 11:18:47;;;;;;;;;;;13.70;99.90;;;;;;5072402;28;20003;-71
2021/05/21 11:21:20;;;;;;;;;;;13.70;99.90;;;;;;5072528;28;19920;-72
2021/05/21 11:23:46;;;;;;;;;;;13.60;99.90;;;;;;5072556;28;19913;-72
2021/05/21 11:26:19;;;;;;;;;;;13.60;99.90;;;;;;5072095;28;19988;-71
2021/05/21 11:28:51;;;;;;;;;;;13.50;99.90;;;;;;5071972;28;19909;-72
2021/05/21 11:31:19;;;;;;;;;;;13.60;99.90;;;;;;5072246;28;20399;-73
2021/05/21 11:33:51;;;;;;;;;;;13.60;99.90;;;;;;5071231;28;19940;-71
2021/05/21 11:36:21;;;;;;;;;;;13.50;99.90;;;;;;5071917;28;19908;-70
2021/05/21 11:38:48;;;;;;;;;;;13.50;99.90;;;;;;5071711;28;19912;-71
2021/05/21 11:41:15;;;;;;;;;;;13.60;99.90;;;;;;5071433;28;19923;-72
2021/05/21 11:43:43;;;;;;;;;;;13.50;99.90;;;;;;5071689;28;19974;-72
2021/05/21 11:46:16;;;;;;;;;;;13.40;99.90;;;;;;5071774;28;19912;-71
2021/05/21 11:48:44;;;;;;;;;;;13.40;99.90;;;;;;5071654;28;20363;-69
2021/05/21 11:51:15;;;;;;;;;;;13.40;99.90;;;;;;5071599;28;19923;-72
2021/05/21 11:53:48;;;;;;;;;;;13.40;99.90;;;;;;5071282;28;20367;-71
2021/05/21 11:56:26;;;;;;;;;;;13.40;99.90;;;;;;5071617;28;19920;-71
2021/05/21 11:58:56;;;;;;;;;;;13.40;99.90;;;;;;5071844;28;19908;-72
2021/05/21 12:01:23;;;;;;;;;;;13.40;99.90;;;;;;5071632;28;20669;-71
2021/05/21 12:03:49;;;;;;;;;;;13.30;99.90;;;;;;5071354;28;19947;-71
2021/05/21 12:06:16;;;;;;;;;;;13.30;99.90;;;;;;5070926;28;19995;-69
2021/05/21 12:08:47;;;;;;;;;;;13.20;99.90;;;;;;5071112;28;19939;-70
2021/05/21 12:11:14;;;;;;;;;;;13.20;99.90;;;;;;5071020;28;20260;-71
2021/05/21 12:13:42;;;;;;;;;;;13.20;99.90;;;;;;5071235;28;19909;-70
2021/05/21 12:16:09;;;;;;;;;;;13.20;99.90;;;;;;5071089;28;19912;-70
2021/05/21 12:18:36;;;;;;;;;;;13.20;99.90;;;;;;5070747;28;20574;-71
2021/05/21 12:21:03;;;;;;;;;;;13.20;99.90;;;;;;5070555;28;20335;-71
2021/05/21 12:23:37;;;;;;;;;;;13.10;99.90;;;;;;5071178;28;19912;-72
2021/05/21 12:26:04;;;;;;;;;;;13.10;99.90;;;;;;5070953;28;20375;-71
2021/05/21 12:28:31;;;;;;;;;;;13.00;99.90;;;;;;5071173;28;19912;-70
2021/05/21 12:31:04;;;;;;;;;;;13.00;99.90;;;;;;5070886;28;19955;-71
2021/05/21 12:33:31;;;;;;;;;;;12.90;99.90;;;;;;5070771;28;20003;-68
2021/05/21 12:36:10;;;;;;;;;;;12.90;99.90;;;;;;5103542;28;19912;-72
2021/05/21 12:38:37;;;;;;;;;;;12.90;99.90;;;;;;5070844;28;19941;-71
2021/05/21 12:41:04;;;;;;;;;;;12.90;99.90;;;;;;5070634;28;19912;-70
2021/05/21 12:43:31;;;;;;;;;;;12.80;99.90;;;;;;5070442;28;19952;-70
2021/05/21 12:46:05;;;;;;;;;;;12.80;99.90;;;;;;5070056;28;19943;-71
2021/05/21 12:48:42;;;;;;;;;;;;;;;;;;;;;
2021/05/21 12:51:10;;;;;;;;;;;12.70;99.90;;;;;;5070428;28;19923;-69
2021/05/21 12:53:37;;;;;;;;;;;12.70;99.90;;;;;;5070985;28;20612;-71
2021/05/21 12:56:07;;;;;;;;;;;12.70;99.90;;;;;;5071562;28;20371;-72
2021/05/21 12:58:45;;;;;;;;;;;12.60;99.90;;;;;;5070876;28;19968;-71
2021/05/21 13:01:18;;;;;;;;;;;12.60;99.90;;;;;;5070924;28;19943;-68
2021/05/21 13:03:54;;;;;;;;;;;12.60;99.90;;;;;;5070865;28;19908;-70
2021/05/21 13:06:25;;;;;;;;;;;12.50;99.90;;;;;;5071222;28;19916;-71
2021/05/21 13:08:51;;;;;;;;;;;12.40;99.90;;;;;;5071063;28;19909;-69
2021/05/21 13:11:18;;;;;;;;;;;12.40;99.90;;;;;;5070785;28;20009;-70
2021/05/21 13:13:45;;;;;;;;;;;12.40;99.90;;;;;;5071229;28;20287;-70
2021/05/21 13:16:12;;;;;;;;;;;12.40;99.90;;;;;;5070633;28;19908;-70
2021/05/21 13:18:40;;;;;;;;;;;12.40;99.90;;;;;;5071057;28;20041;-68
2021/05/21 13:21:08;;;;;;;;;;;12.40;99.90;;;;;;5070225;28;19913;-67
2021/05/21 13:23:35;;;;;;;;;;;12.30;99.90;;;;;;5069690;28;19912;-69
2021/05/21 13:26:03;;;;;;;;;;;12.20;99.90;;;;;;5085381;28;20325;-69
2021/05/21 13:28:38;;;;;;;;;;;12.20;99.90;;;;;;5070125;28;19970;-69
2021/05/21 13:31:05;;;;;;;;;;;12.20;99.90;;;;;;5068854;28;19924;-67
2021/05/21 13:33:32;;;;;;;;;;;12.10;99.90;;;;;;5070466;28;19916;-70
2021/05/21 13:36:00;;;;;;;;;;;12.10;99.90;;;;;;5070435;28;19913;-70
2021/05/21 13:38:40;;;;;;;;;;;;;;;;;;;;;
2021/05/21 13:41:07;;;;;;;;;;;12.00;99.90;;;;;;5069890;28;19912;-69
2021/05/21 13:43:33;;;;;;;;;;;12.00;99.90;;;;;;5069731;28;20334;-71
2021/05/21 13:46:00;;;;;;;;;;;12.00;99.90;;;;;;5071337;28;20002;-72
2021/05/21 13:48:27;;;;;;;;;;;12.00;99.90;;;;;;5103036;28;19920;-70
2021/05/21 13:50:54;;;;;;;;;;;12.00;99.90;;;;;;5069307;28;19979;-71
2021/05/21 13:53:22;;;;;;;;;;;12.00;99.90;;;;;;5070119;28;19913;-71
2021/05/21 13:55:49;;;;;;;;;;;12.00;99.90;;;;;;5069843;28;20003;-71
2021/05/21 13:58:15;;;;;;;;;;;11.90;99.90;;;;;;5072691;28;20336;-71
2021/05/21 14:00:42;;;;;;;;;;;11.90;99.90;;;;;;5073801;28;19948;-71
2021/05/21 14:03:09;;;;;;;;;;;11.90;99.90;;;;;;5073292;28;19960;-71
2021/05/21 14:05:35;;;;;;;;;;;11.90;99.90;;;;;;5084485;28;19931;-69
2021/05/21 14:08:02;;;;;;;;;;;11.90;99.90;;;;;;5114913;28;20308;-71
2021/05/21 14:10:29;;;;;;;;;;;11.90;99.90;;;;;;5114842;28;20499;-71
2021/05/21 14:12:55;;;;;;;;;;;11.90;99.90;;;;;;5114594;28;19954;-71
2021/05/21 14:15:22;;;;;;;;;;;11.90;99.90;;;;;;5114706;28;19907;-69
2021/05/21 14:17:49;;;;;;;;;;;11.90;99.90;;;;;;5114282;28;20022;-71
2021/05/21 14:20:17;;;;;;;;;;;11.80;99.90;;;;;;5114755;28;19943;-72
2021/05/21 14:22:45;;;;;;;;;;;11.90;99.90;;;;;;5114433;28;19907;-71
2021/05/21 14:25:15;;;;;;;;;;;11.90;99.90;;;;;;5114456;28;19995;-70